Time;durP1;ratioP1;P1;durP2;ratioP2;P2;SDS_P1;SDS_P2;PMS_P1;PMS_P2;Temp;Humidity;BMP_temperature;BMP_pressure;BME280_temperature;BME280_humidity;BME280_pressure;Samples;Min_cycle;Max_cycle;Signal;HPM_P1;HPM_P2
2019/12/13 00:00:39;;;;;;;5.199999;3.85;;;;;;;-1.74;98.53125;92890.59;;;;
2019/12/13 00:01:41;;;;;;;5.199999;3.85;;;;;;;-1.74;98.53125;92890.59;;;;
2019/12/13 00:02:45;;;;;;;5.199999;3.85;;;;;;;-1.74;98.53125;92890.59;;;;
2019/12/13 00:03:47;;;;;;;5.199999;3.85;;;;;;;-1.74;98.53125;92890.59;;;;
2019/12/13 00:04:49;;;;;;;5.199999;3.85;;;;;;;-1.74;98.53125;92890.59;;;;
2019/12/13 00:05:50;;;;;;;5.199999;3.85;;;;;;;-1.74;98.53125;92890.59;;;;
2019/12/13 00:06:51;;;;;;;5.199999;3.85;;;;;;;-1.74;98.53125;92890.59;;;;
2019/12/13 00:07:52;;;;;;;5.199999;3.85;;;;;;;-1.74;98.53125;92890.59;;;;
2019/12/13 00:08:53;;;;;;;3.95;3.45;;;;;;;-1.84;98.49609;92877.5;;;;
2019/12/13 00:09:54;;;;;;;3.95;3.45;;;;;;;-1.84;98.49609;92877.5;;;;
2019/12/13 00:10:55;;;;;;;3.95;3.45;;;;;;;-1.84;98.49609;92877.5;;;;
2019/12/13 00:11:57;;;;;;;3.95;3.45;;;;;;;-1.84;98.49609;92877.5;;;;
2019/12/13 00:12:58;;;;;;;3.95;3.45;;;;;;;-1.84;98.49609;92877.5;;;;
2019/12/13 00:13:59;;;;;;;3.95;3.45;;;;;;;-1.84;98.49609;92877.5;;;;
2019/12/13 00:15:00;;;;;;;3.95;3.45;;;;;;;-1.84;98.49609;92877.5;;;;
2019/12/13 00:16:01;;;;;;;3.95;3.45;;;;;;;-1.84;98.49609;92877.5;;;;
2019/12/13 00:17:03;;;;;;;3.95;3.45;;;;;;;-1.84;98.49609;92877.5;;;;
2019/12/13 00:18:04;;;;;;;3.95;3.45;;;;;;;-1.84;98.49609;92877.5;;;;
2019/12/13 00:19:05;;;;;;;3.95;3.45;;;;;;;-1.84;98.49609;92877.5;;;;
2019/12/13 00:20:06;;;;;;;5.1;3.85;;;;;;;-1.9;98.52734;92856.31;;;;
2019/12/13 00:21:07;;;;;;;5.1;3.85;;;;;;;-1.9;98.52734;92856.31;;;;
2019/12/13 00:22:08;;;;;;;5.1;3.85;;;;;;;-1.9;98.52734;92856.31;;;;
2019/12/13 00:23:09;;;;;;;5.1;3.85;;;;;;;-1.9;98.52734;92856.31;;;;
2019/12/13 00:24:10;;;;;;;5.1;3.85;;;;;;;-1.9;98.52734;92856.31;;;;
2019/12/13 00:25:11;;;;;;;5.1;3.85;;;;;;;-1.9;98.52734;92856.31;;;;
2019/12/13 00:26:12;;;;;;;5.1;3.85;;;;;;;-1.9;98.52734;92856.31;;;;
2019/12/13 00:27:14;;;;;;;5.1;3.85;;;;;;;-1.9;98.52734;92856.31;;;;
2019/12/13 00:28:15;;;;;;;5.1;3.85;;;;;;;-1.9;98.52734;92856.31;;;;
2019/12/13 00:29:16;;;;;;;5.1;3.85;;;;;;;-1.9;98.52734;92856.31;;;;
2019/12/13 00:30:17;;;;;;;4.799999;4;;;;;;;-2.09;98.26465;92829.58;;;;
2019/12/13 00:31:18;;;;;;;4.799999;4;;;;;;;-2.09;98.26465;92829.58;;;;
2019/12/13 00:32:19;;;;;;;4.799999;4;;;;;;;-2.09;98.26465;92829.58;;;;
2019/12/13 00:33:20;;;;;;;4.799999;4;;;;;;;-2.09;98.26465;92829.58;;;;
2019/12/13 00:34:22;;;;;;;4.799999;4;;;;;;;-2.09;98.26465;92829.58;;;;
2019/12/13 00:35:23;;;;;;;4.799999;4;;;;;;;-2.09;98.26465;92829.58;;;;
2019/12/13 00:36:24;;;;;;;4.799999;4;;;;;;;-2.09;98.26465;92829.58;;;;
2019/12/13 00:37:25;;;;;;;4.799999;4;;;;;;;-2.09;98.26465;92829.58;;;;
2019/12/13 00:38:26;;;;;;;4.799999;4;;;;;;;-2.09;98.26465;92829.58;;;;
2019/12/13 00:39:27;;;;;;;4.799999;4;;;;;;;-2.09;98.26465;92829.58;;;;
2019/12/13 00:40:32;;;;;;;5.8;4.1;;;;;;;-2.32;98.44922;92803.79;;;;
2019/12/13 00:41:50;;;;;;;5.8;4.1;;;;;;;-2.32;98.44922;92803.79;;;;
2019/12/13 00:43:33;;;;;;;5.8;4.1;;;;;;;-2.32;98.44922;92803.79;;;;
2019/12/13 00:45:17;;;;;;;5.8;4.1;;;;;;;-2.32;98.44922;92803.79;;;;
2019/12/13 00:46:18;;;;;;;5.8;4.1;;;;;;;-2.32;98.44922;92803.79;;;;
2019/12/13 00:47:19;;;;;;;5.8;4.1;;;;;;;-2.32;98.44922;92803.79;;;;
2019/12/13 00:48:20;;;;;;;5.8;4.1;;;;;;;-2.32;98.44922;92803.79;;;;
2019/12/13 00:49:21;;;;;;;5.8;4.1;;;;;;;-2.32;98.44922;92803.79;;;;
2019/12/13 00:50:22;;;;;;;5.8;4.1;;;;;;;-2.32;98.44922;92803.79;;;;
2019/12/13 00:51:23;;;;;;;5.3;4.35;;;;;;;-2.49;98.37695;92776.44;;;;
2019/12/13 00:52:24;;;;;;;5.3;4.35;;;;;;;-2.49;98.37695;92776.44;;;;
2019/12/13 00:53:25;;;;;;;5.3;4.35;;;;;;;-2.49;98.37695;92776.44;;;;
2019/12/13 00:54:26;;;;;;;5.3;4.35;;;;;;;-2.49;98.37695;92776.44;;;;
2019/12/13 00:55:28;;;;;;;5.3;4.35;;;;;;;-2.49;98.37695;92776.44;;;;
2019/12/13 00:56:29;;;;;;;5.3;4.35;;;;;;;-2.49;98.37695;92776.44;;;;
2019/12/13 00:57:30;;;;;;;5.3;4.35;;;;;;;-2.49;98.37695;92776.44;;;;
2019/12/13 00:58:31;;;;;;;5.3;4.35;;;;;;;-2.49;98.37695;92776.44;;;;
2019/12/13 00:59:32;;;;;;;5.3;4.35;;;;;;;-2.49;98.37695;92776.44;;;;
2019/12/13 01:00:33;;;;;;;5.3;4.35;;;;;;;-2.49;98.37695;92776.44;;;;
2019/12/13 01:01:36;;;;;;;5.3;4.35;;;;;;;-2.49;98.37695;92776.44;;;;
2019/12/13 01:02:51;;;;;;;6;4.75;;;;;;;-2.65;98.43457;92737.3;;;;
2019/12/13 01:03:57;;;;;;;6;4.75;;;;;;;-2.65;98.43457;92737.3;;;;
2019/12/13 01:09:53;;;;;;;6;4.75;;;;;;;-2.65;98.43457;92737.3;;;;
2019/12/13 01:10:54;;;;;;;6;4.75;;;;;;;-2.65;98.43457;92737.3;;;;
2019/12/13 01:11:55;;;;;;;6;4.75;;;;;;;-2.65;98.43457;92737.3;;;;
2019/12/13 01:12:57;;;;;;;6.15;4.450001;;;;;;;-2.67;98.28613;92687.87;;;;
2019/12/13 01:13:58;;;;;;;6.15;4.450001;;;;;;;-2.67;98.28613;92687.87;;;;
2019/12/13 01:14:59;;;;;;;6.15;4.450001;;;;;;;-2.67;98.28613;92687.87;;;;
2019/12/13 01:16:00;;;;;;;6.15;4.450001;;;;;;;-2.67;98.28613;92687.87;;;;
2019/12/13 01:17:01;;;;;;;6.15;4.450001;;;;;;;-2.67;98.28613;92687.87;;;;
2019/12/13 01:18:02;;;;;;;6.15;4.450001;;;;;;;-2.67;98.28613;92687.87;;;;
2019/12/13 01:19:03;;;;;;;6.15;4.450001;;;;;;;-2.67;98.28613;92687.87;;;;
2019/12/13 01:20:04;;;;;;;6.15;4.450001;;;;;;;-2.67;98.28613;92687.87;;;;
2019/12/13 01:21:05;;;;;;;6.15;4.450001;;;;;;;-2.67;98.28613;92687.87;;;;
2019/12/13 01:22:06;;;;;;;6.15;4.450001;;;;;;;-2.67;98.28613;92687.87;;;;
2019/12/13 01:23:08;;;;;;;5.7;4.299999;;;;;;;-2.76;98.15137;92675.17;;;;
2019/12/13 01:24:09;;;;;;;5.7;4.299999;;;;;;;-2.76;98.15137;92675.17;;;;
2019/12/13 01:25:10;;;;;;;5.7;4.299999;;;;;;;-2.76;98.15137;92675.17;;;;
2019/12/13 01:26:11;;;;;;;5.7;4.299999;;;;;;;-2.76;98.15137;92675.17;;;;
2019/12/13 01:27:12;;;;;;;5.7;4.299999;;;;;;;-2.76;98.15137;92675.17;;;;
2019/12/13 01:28:13;;;;;;;5.7;4.299999;;;;;;;-2.76;98.15137;92675.17;;;;
2019/12/13 01:29:14;;;;;;;5.7;4.299999;;;;;;;-2.76;98.15137;92675.17;;;;
2019/12/13 01:30:15;;;;;;;5.7;4.299999;;;;;;;-2.76;98.15137;92675.17;;;;
2019/12/13 01:31:16;;;;;;;5.7;4.299999;;;;;;;-2.76;98.15137;92675.17;;;;
2019/12/13 01:32:17;;;;;;;5.7;4.299999;;;;;;;-2.76;98.15137;92675.17;;;;
2019/12/13 01:33:19;;;;;;;5.7;4.299999;;;;;;;-2.76;98.15137;92675.17;;;;
2019/12/13 01:34:20;;;;;;;4.95;3.95;;;;;;;-2.85;98.38867;92648.67;;;;
2019/12/13 01:35:21;;;;;;;4.95;3.95;;;;;;;-2.85;98.38867;92648.67;;;;
2019/12/13 01:36:22;;;;;;;4.95;3.95;;;;;;;-2.85;98.38867;92648.67;;;;
2019/12/13 01:37:23;;;;;;;4.95;3.95;;;;;;;-2.85;98.38867;92648.67;;;;
2019/12/13 01:38:27;;;;;;;4.95;3.95;;;;;;;-2.85;98.38867;92648.67;;;;
2019/12/13 01:39:34;;;;;;;4.95;3.95;;;;;;;-2.85;98.38867;92648.67;;;;
2019/12/13 01:40:44;;;;;;;4.95;3.95;;;;;;;-2.85;98.38867;92648.67;;;;
2019/12/13 01:41:51;;;;;;;4.95;3.95;;;;;;;-2.85;98.38867;92648.67;;;;
2019/12/13 01:42:53;;;;;;;4.95;3.95;;;;;;;-2.85;98.38867;92648.67;;;;
2019/12/13 01:44:09;;;;;;;4.95;3.95;;;;;;;-2.85;98.38867;92648.67;;;;
2019/12/13 01:46:39;;;;;;;5.7;4;;;;;;;-2.87;98.47754;92625.64;;;;
2019/12/13 01:47:52;;;;;;;5.7;4;;;;;;;-2.87;98.47754;92625.64;;;;
2019/12/13 01:48:53;;;;;;;5.7;4;;;;;;;-2.87;98.47754;92625.64;;;;
2019/12/13 01:49:54;;;;;;;5.7;4;;;;;;;-2.87;98.47754;92625.64;;;;
2019/12/13 01:50:55;;;;;;;5.7;4;;;;;;;-2.87;98.47754;92625.64;;;;
2019/12/13 01:51:56;;;;;;;5.7;4;;;;;;;-2.87;98.47754;92625.64;;;;
2019/12/13 01:52:57;;;;;;;5.7;4;;;;;;;-2.87;98.47754;92625.64;;;;
2019/12/13 01:53:58;;;;;;;5.7;4;;;;;;;-2.87;98.47754;92625.64;;;;
2019/12/13 01:54:59;;;;;;;4.7;3.85;;;;;;;-2.83;98.3623;92608.84;;;;
2019/12/13 01:56:00;;;;;;;4.7;3.85;;;;;;;-2.83;98.3623;92608.84;;;;
2019/12/13 01:57:02;;;;;;;4.7;3.85;;;;;;;-2.83;98.3623;92608.84;;;;
2019/12/13 01:58:03;;;;;;;4.7;3.85;;;;;;;-2.83;98.3623;92608.84;;;;
2019/12/13 01:59:04;;;;;;;4.7;3.85;;;;;;;-2.83;98.3623;92608.84;;;;
2019/12/13 02:00:05;;;;;;;4.7;3.85;;;;;;;-2.83;98.3623;92608.84;;;;
2019/12/13 02:01:06;;;;;;;4.7;3.85;;;;;;;-2.83;98.3623;92608.84;;;;
2019/12/13 02:02:07;;;;;;;4.7;3.85;;;;;;;-2.83;98.3623;92608.84;;;;
2019/12/13 02:03:08;;;;;;;4.7;3.85;;;;;;;-2.83;98.3623;92608.84;;;;
2019/12/13 02:04:10;;;;;;;4.7;3.85;;;;;;;-2.83;98.3623;92608.84;;;;
2019/12/13 02:05:11;;;;;;;4.7;3.85;;;;;;;-2.83;98.3623;92608.84;;;;
2019/12/13 02:06:12;;;;;;;5;3.5;;;;;;;-2.76;98.34668;92585.82;;;;
2019/12/13 02:07:13;;;;;;;5;3.5;;;;;;;-2.76;98.34668;92585.82;;;;
2019/12/13 02:08:14;;;;;;;5;3.5;;;;;;;-2.76;98.34668;92585.82;;;;
2019/12/13 02:09:15;;;;;;;5;3.5;;;;;;;-2.76;98.34668;92585.82;;;;
2019/12/13 02:10:17;;;;;;;5;3.5;;;;;;;-2.76;98.34668;92585.82;;;;
2019/12/13 02:11:18;;;;;;;5;3.5;;;;;;;-2.76;98.34668;92585.82;;;;
2019/12/13 02:12:19;;;;;;;5;3.5;;;;;;;-2.76;98.34668;92585.82;;;;
2019/12/13 02:13:20;;;;;;;5;3.5;;;;;;;-2.76;98.34668;92585.82;;;;
2019/12/13 02:14:22;;;;;;;5;3.5;;;;;;;-2.76;98.34668;92585.82;;;;
2019/12/13 02:15:23;;;;;;;5;3.5;;;;;;;-2.76;98.34668;92585.82;;;;
2019/12/13 02:16:24;;;;;;;3.9;3.25;;;;;;;-2.68;98.24316;92570.06;;;;
2019/12/13 02:17:25;;;;;;;3.9;3.25;;;;;;;-2.68;98.24316;92570.06;;;;
2019/12/13 02:18:26;;;;;;;3.9;3.25;;;;;;;-2.68;98.24316;92570.06;;;;
2019/12/13 02:19:27;;;;;;;3.9;3.25;;;;;;;-2.68;98.24316;92570.06;;;;
2019/12/13 02:20:30;;;;;;;3.9;3.25;;;;;;;-2.68;98.24316;92570.06;;;;
2019/12/13 02:21:31;;;;;;;3.9;3.25;;;;;;;-2.68;98.24316;92570.06;;;;
2019/12/13 02:22:33;;;;;;;3.9;3.25;;;;;;;-2.68;98.24316;92570.06;;;;
2019/12/13 02:23:35;;;;;;;3.9;3.25;;;;;;;-2.68;98.24316;92570.06;;;;
2019/12/13 02:24:36;;;;;;;3.9;3.25;;;;;;;-2.68;98.24316;92570.06;;;;
2019/12/13 02:25:37;;;;;;;3.9;3.25;;;;;;;-2.68;98.24316;92570.06;;;;
2019/12/13 02:26:38;;;;;;;3.8;2.95;;;;;;;-2.57;98.01953;92541.17;;;;
2019/12/13 02:27:40;;;;;;;3.8;2.95;;;;;;;-2.57;98.01953;92541.17;;;;
2019/12/13 02:28:41;;;;;;;3.8;2.95;;;;;;;-2.57;98.01953;92541.17;;;;
2019/12/13 02:29:42;;;;;;;3.8;2.95;;;;;;;-2.57;98.01953;92541.17;;;;
2019/12/13 02:30:44;;;;;;;3.8;2.95;;;;;;;-2.57;98.01953;92541.17;;;;
2019/12/13 02:31:45;;;;;;;3.8;2.95;;;;;;;-2.57;98.01953;92541.17;;;;
2019/12/13 02:32:46;;;;;;;3.8;2.95;;;;;;;-2.57;98.01953;92541.17;;;;
2019/12/13 02:33:47;;;;;;;3.8;2.95;;;;;;;-2.57;98.01953;92541.17;;;;
2019/12/13 02:34:48;;;;;;;3.8;2.95;;;;;;;-2.57;98.01953;92541.17;;;;
2019/12/13 02:35:49;;;;;;;3.8;2.95;;;;;;;-2.57;98.01953;92541.17;;;;
2019/12/13 02:36:50;;;;;;;3.8;2.95;;;;;;;-2.57;98.01953;92541.17;;;;
2019/12/13 02:37:52;;;;;;;3.8;2.95;;;;;;;-2.57;98.01953;92541.17;;;;
2019/12/13 02:38:53;;;;;;;3.8;2.95;;;;;;;-2.57;98.01953;92541.17;;;;
2019/12/13 02:39:54;;;;;;;3.8;2.95;;;;;;;-2.57;98.01953;92541.17;;;;
2019/12/13 02:40:55;;;;;;;3.8;2.95;;;;;;;-2.57;98.01953;92541.17;;;;
2019/12/13 02:41:56;;;;;;;3.8;2.95;;;;;;;-2.57;98.01953;92541.17;;;;
2019/12/13 02:42:58;;;;;;;3.8;2.95;;;;;;;-2.57;98.01953;92541.17;;;;
2019/12/13 02:43:59;;;;;;;3.8;2.95;;;;;;;-2.57;98.01953;92541.17;;;;
2019/12/13 02:45:00;;;;;;;3.8;2.95;;;;;;;-2.57;98.01953;92541.17;;;;
2019/12/13 02:46:01;;;;;;;3.8;2.95;;;;;;;-2.57;98.01953;92541.17;;;;
2019/12/13 02:47:03;;;;;;;3.8;2.95;;;;;;;-2.57;98.01953;92541.17;;;;
2019/12/13 02:48:04;;;;;;;3.8;2.95;;;;;;;-2.57;98.01953;92541.17;;;;
2019/12/13 02:49:05;;;;;;;3.5;2.75;;;;;;;-2.19;97.43848;92472.13;;;;
2019/12/13 02:50:06;;;;;;;3.5;2.75;;;;;;;-2.19;97.43848;92472.13;;;;
2019/12/13 02:51:07;;;;;;;3.5;2.75;;;;;;;-2.19;97.43848;92472.13;;;;
2019/12/13 02:52:09;;;;;;;3.5;2.75;;;;;;;-2.19;97.43848;92472.13;;;;
2019/12/13 02:53:10;;;;;;;3.5;2.75;;;;;;;-2.19;97.43848;92472.13;;;;
2019/12/13 02:54:11;;;;;;;3.5;2.75;;;;;;;-2.19;97.43848;92472.13;;;;
2019/12/13 02:55:12;;;;;;;3.5;2.75;;;;;;;-2.19;97.43848;92472.13;;;;
2019/12/13 02:56:13;;;;;;;3.5;2.75;;;;;;;-2.19;97.43848;92472.13;;;;
2019/12/13 02:57:14;;;;;;;3.5;2.75;;;;;;;-2.19;97.43848;92472.13;;;;
2019/12/13 02:58:15;;;;;;;3.5;2.75;;;;;;;-2.19;97.43848;92472.13;;;;
2019/12/13 02:59:17;;;;;;;3.4;2.750001;;;;;;;-2;97.64453;92434.01;;;;
2019/12/13 03:00:18;;;;;;;3.4;2.750001;;;;;;;-2;97.64453;92434.01;;;;
2019/12/13 03:01:19;;;;;;;3.4;2.750001;;;;;;;-2;97.64453;92434.01;;;;
2019/12/13 03:02:21;;;;;;;3.4;2.750001;;;;;;;-2;97.64453;92434.01;;;;
2019/12/13 03:03:22;;;;;;;3.4;2.750001;;;;;;;-2;97.64453;92434.01;;;;
2019/12/13 03:04:23;;;;;;;3.4;2.750001;;;;;;;-2;97.64453;92434.01;;;;
2019/12/13 03:05:25;;;;;;;3.4;2.750001;;;;;;;-2;97.64453;92434.01;;;;
2019/12/13 03:06:27;;;;;;;3.4;2.750001;;;;;;;-2;97.64453;92434.01;;;;
2019/12/13 03:07:28;;;;;;;3.4;2.750001;;;;;;;-2;97.64453;92434.01;;;;
2019/12/13 03:08:29;;;;;;;3.4;2.750001;;;;;;;-2;97.64453;92434.01;;;;
2019/12/13 03:09:30;;;;;;;4.349999;3.2;;;;;;;-1.9;97.42285;92408.59;;;;
2019/12/13 03:10:32;;;;;;;4.349999;3.2;;;;;;;-1.9;97.42285;92408.59;;;;
2019/12/13 03:11:33;;;;;;;4.349999;3.2;;;;;;;-1.9;97.42285;92408.59;;;;
2019/12/13 03:12:34;;;;;;;4.349999;3.2;;;;;;;-1.9;97.42285;92408.59;;;;
2019/12/13 03:13:35;;;;;;;4.349999;3.2;;;;;;;-1.9;97.42285;92408.59;;;;
2019/12/13 03:14:36;;;;;;;4.349999;3.2;;;;;;;-1.9;97.42285;92408.59;;;;
2019/12/13 03:16:49;;;;;;;4.349999;3.2;;;;;;;-1.9;97.42285;92408.59;;;;
2019/12/13 03:18:09;;;;;;;4.349999;3.2;;;;;;;-1.9;97.42285;92408.59;;;;
2019/12/13 03:20:21;;;;;;;4.349999;3.2;;;;;;;-1.9;97.42285;92408.59;;;;
2019/12/13 03:21:29;;;;;;;3.7;3.05;;;;;;;-1.89;97.49707;92398.3;;;;
2019/12/13 03:22:31;;;;;;;3.7;3.05;;;;;;;-1.89;97.49707;92398.3;;;;
2019/12/13 03:23:32;;;;;;;3.7;3.05;;;;;;;-1.89;97.49707;92398.3;;;;
2019/12/13 03:24:34;;;;;;;3.7;3.05;;;;;;;-1.89;97.49707;92398.3;;;;
2019/12/13 03:25:35;;;;;;;3.7;3.05;;;;;;;-1.89;97.49707;92398.3;;;;
2019/12/13 03:26:36;;;;;;;3.7;3.05;;;;;;;-1.89;97.49707;92398.3;;;;
2019/12/13 03:27:37;;;;;;;3.7;3.05;;;;;;;-1.89;97.49707;92398.3;;;;
2019/12/13 03:28:38;;;;;;;3.7;3.05;;;;;;;-1.89;97.49707;92398.3;;;;
2019/12/13 03:29:39;;;;;;;3.7;3.05;;;;;;;-1.89;97.49707;92398.3;;;;
2019/12/13 03:30:41;;;;;;;3.8;2.900001;;;;;;;-1.82;97.52051;92398.19;;;;
2019/12/13 03:31:42;;;;;;;3.8;2.900001;;;;;;;-1.82;97.52051;92398.19;;;;
2019/12/13 03:32:43;;;;;;;3.8;2.900001;;;;;;;-1.82;97.52051;92398.19;;;;
2019/12/13 03:33:44;;;;;;;3.8;2.900001;;;;;;;-1.82;97.52051;92398.19;;;;
2019/12/13 03:34:45;;;;;;;3.8;2.900001;;;;;;;-1.82;97.52051;92398.19;;;;
2019/12/13 03:35:46;;;;;;;3.8;2.900001;;;;;;;-1.82;97.52051;92398.19;;;;
2019/12/13 03:36:47;;;;;;;3.8;2.900001;;;;;;;-1.82;97.52051;92398.19;;;;
2019/12/13 03:37:48;;;;;;;3.8;2.900001;;;;;;;-1.82;97.52051;92398.19;;;;
2019/12/13 03:38:49;;;;;;;3.8;2.900001;;;;;;;-1.82;97.52051;92398.19;;;;
2019/12/13 03:39:51;;;;;;;3.8;2.900001;;;;;;;-1.82;97.52051;92398.19;;;;
2019/12/13 03:40:52;;;;;;;3.8;2.900001;;;;;;;-1.82;97.52051;92398.19;;;;
2019/12/13 03:41:53;;;;;;;4;2.8;;;;;;;-1.73;97.55469;92372.45;;;;
2019/12/13 03:42:54;;;;;;;4;2.8;;;;;;;-1.73;97.55469;92372.45;;;;
2019/12/13 03:43:55;;;;;;;4;2.8;;;;;;;-1.73;97.55469;92372.45;;;;
2019/12/13 03:44:57;;;;;;;4;2.8;;;;;;;-1.73;97.55469;92372.45;;;;
2019/12/13 03:46:00;;;;;;;4;2.8;;;;;;;-1.73;97.55469;92372.45;;;;
2019/12/13 03:47:02;;;;;;;4;2.8;;;;;;;-1.73;97.55469;92372.45;;;;
2019/12/13 03:48:03;;;;;;;4;2.8;;;;;;;-1.73;97.55469;92372.45;;;;
2019/12/13 03:49:05;;;;;;;4;2.8;;;;;;;-1.73;97.55469;92372.45;;;;
2019/12/13 03:50:06;;;;;;;4;2.8;;;;;;;-1.73;97.55469;92372.45;;;;
2019/12/13 03:51:08;;;;;;;4;2.8;;;;;;;-1.73;97.55469;92372.45;;;;
2019/12/13 03:52:10;;;;;;;4;2.95;;;;;;;-1.63;97.59668;92347.16;;;;
2019/12/13 03:53:19;;;;;;;4;2.95;;;;;;;-1.63;97.59668;92347.16;;;;
2019/12/13 03:54:20;;;;;;;4;2.95;;;;;;;-1.63;97.59668;92347.16;;;;
2019/12/13 03:55:22;;;;;;;4;2.95;;;;;;;-1.63;97.59668;92347.16;;;;
2019/12/13 03:56:24;;;;;;;4;2.95;;;;;;;-1.63;97.59668;92347.16;;;;
2019/12/13 03:57:25;;;;;;;4;2.95;;;;;;;-1.63;97.59668;92347.16;;;;
2019/12/13 03:58:27;;;;;;;4;2.95;;;;;;;-1.63;97.59668;92347.16;;;;
2019/12/13 03:59:29;;;;;;;4;2.95;;;;;;;-1.63;97.59668;92347.16;;;;
2019/12/13 04:00:31;;;;;;;4;2.95;;;;;;;-1.63;97.59668;92347.16;;;;
2019/12/13 04:01:34;;;;;;;4;2.95;;;;;;;-1.63;97.59668;92347.16;;;;
2019/12/13 04:02:35;;;;;;;5.799999;4.1;;;;;;;-1.57;97.45508;92311.44;;;;
2019/12/13 04:03:36;;;;;;;5.799999;4.1;;;;;;;-1.57;97.45508;92311.44;;;;
2019/12/13 04:04:37;;;;;;;5.799999;4.1;;;;;;;-1.57;97.45508;92311.44;;;;
2019/12/13 04:05:38;;;;;;;5.799999;4.1;;;;;;;-1.57;97.45508;92311.44;;;;
2019/12/13 04:06:39;;;;;;;5.799999;4.1;;;;;;;-1.57;97.45508;92311.44;;;;
2019/12/13 04:07:41;;;;;;;5.799999;4.1;;;;;;;-1.57;97.45508;92311.44;;;;
2019/12/13 04:08:42;;;;;;;5.799999;4.1;;;;;;;-1.57;97.45508;92311.44;;;;
2019/12/13 04:09:43;;;;;;;5.799999;4.1;;;;;;;-1.57;97.45508;92311.44;;;;
2019/12/13 04:10:44;;;;;;;5.799999;4.1;;;;;;;-1.57;97.45508;92311.44;;;;
2019/12/13 04:11:46;;;;;;;5.799999;4.1;;;;;;;-1.57;97.45508;92311.44;;;;
2019/12/13 04:12:47;;;;;;;5.799999;4.1;;;;;;;-1.57;97.45508;92311.44;;;;
2019/12/13 04:13:48;;;;;;;5.450001;4.1;;;;;;;-1.57;97.49609;92278.88;;;;
2019/12/13 04:14:49;;;;;;;5.450001;4.1;;;;;;;-1.57;97.49609;92278.88;;;;
2019/12/13 04:15:50;;;;;;;5.450001;4.1;;;;;;;-1.57;97.49609;92278.88;;;;
2019/12/13 04:16:57;;;;;;;5.450001;4.1;;;;;;;-1.57;97.49609;92278.88;;;;
2019/12/13 04:18:00;;;;;;;5.450001;4.1;;;;;;;-1.57;97.49609;92278.88;;;;
2019/12/13 04:19:04;;;;;;;5.450001;4.1;;;;;;;-1.57;97.49609;92278.88;;;;
2019/12/13 04:20:05;;;;;;;5.450001;4.1;;;;;;;-1.57;97.49609;92278.88;;;;
2019/12/13 04:21:07;;;;;;;5.450001;4.1;;;;;;;-1.57;97.49609;92278.88;;;;
2019/12/13 04:22:08;;;;;;;5.450001;4.1;;;;;;;-1.57;97.49609;92278.88;;;;
2019/12/13 04:23:09;;;;;;;5.450001;4.1;;;;;;;-1.57;97.49609;92278.88;;;;
2019/12/13 04:24:11;;;;;;;7.1;5.15;;;;;;;-1.66;97.46387;92267.49;;;;
2019/12/13 04:25:12;;;;;;;7.1;5.15;;;;;;;-1.66;97.46387;92267.49;;;;
2019/12/13 04:26:15;;;;;;;7.1;5.15;;;;;;;-1.66;97.46387;92267.49;;;;
2019/12/13 04:27:16;;;;;;;7.1;5.15;;;;;;;-1.66;97.46387;92267.49;;;;
2019/12/13 04:28:17;;;;;;;7.1;5.15;;;;;;;-1.66;97.46387;92267.49;;;;
2019/12/13 04:29:18;;;;;;;7.1;5.15;;;;;;;-1.66;97.46387;92267.49;;;;
2019/12/13 04:30:20;;;;;;;7.1;5.15;;;;;;;-1.66;97.46387;92267.49;;;;
2019/12/13 04:31:26;;;;;;;7.1;5.15;;;;;;;-1.66;97.46387;92267.49;;;;
2019/12/13 04:32:27;;;;;;;7.1;5.15;;;;;;;-1.66;97.46387;92267.49;;;;
2019/12/13 04:33:28;;;;;;;7.1;5.15;;;;;;;-1.66;97.46387;92267.49;;;;
2019/12/13 04:34:29;;;;;;;9.25;5.950001;;;;;;;-1.6;97.58301;92249.22;;;;
2019/12/13 04:35:31;;;;;;;9.25;5.950001;;;;;;;-1.6;97.58301;92249.22;;;;
2019/12/13 04:36:32;;;;;;;9.25;5.950001;;;;;;;-1.6;97.58301;92249.22;;;;
2019/12/13 04:37:33;;;;;;;9.25;5.950001;;;;;;;-1.6;97.58301;92249.22;;;;
2019/12/13 04:38:34;;;;;;;9.25;5.950001;;;;;;;-1.6;97.58301;92249.22;;;;
2019/12/13 04:39:35;;;;;;;9.25;5.950001;;;;;;;-1.6;97.58301;92249.22;;;;
2019/12/13 04:40:36;;;;;;;9.25;5.950001;;;;;;;-1.6;97.58301;92249.22;;;;
2019/12/13 04:41:37;;;;;;;9.25;5.950001;;;;;;;-1.6;97.58301;92249.22;;;;
2019/12/13 04:42:38;;;;;;;9.25;5.950001;;;;;;;-1.6;97.58301;92249.22;;;;
2019/12/13 04:43:39;;;;;;;9.25;5.950001;;;;;;;-1.6;97.58301;92249.22;;;;
2019/12/13 04:44:41;;;;;;;9.25;5.950001;;;;;;;-1.6;97.58301;92249.22;;;;
2019/12/13 04:45:42;;;;;;;9.25;5.950001;;;;;;;-1.6;97.58301;92249.22;;;;
2019/12/13 04:46:43;;;;;;;9.25;5.950001;;;;;;;-1.6;97.58301;92249.22;;;;
2019/12/13 04:47:44;;;;;;;9.25;5.950001;;;;;;;-1.6;97.58301;92249.22;;;;
2019/12/13 04:48:45;;;;;;;9.25;5.950001;;;;;;;-1.6;97.58301;92249.22;;;;
2019/12/13 04:49:46;;;;;;;9.25;5.950001;;;;;;;-1.6;97.58301;92249.22;;;;
2019/12/13 04:50:47;;;;;;;9.25;5.950001;;;;;;;-1.6;97.58301;92249.22;;;;
2019/12/13 04:51:48;;;;;;;9.25;5.950001;;;;;;;-1.6;97.58301;92249.22;;;;
2019/12/13 04:52:49;;;;;;;9.25;5.950001;;;;;;;-1.6;97.58301;92249.22;;;;
2019/12/13 04:53:50;;;;;;;9.25;5.950001;;;;;;;-1.6;97.58301;92249.22;;;;
2019/12/13 04:54:52;;;;;;;9.25;5.950001;;;;;;;-1.6;97.58301;92249.22;;;;
2019/12/13 04:55:53;;;;;;;9.85;7;;;;;;;-1.42;97.08887;92207.61;;;;
2019/12/13 04:56:54;;;;;;;9.85;7;;;;;;;-1.42;97.08887;92207.61;;;;
2019/12/13 04:57:55;;;;;;;9.85;7;;;;;;;-1.42;97.08887;92207.61;;;;
2019/12/13 04:58:56;;;;;;;9.85;7;;;;;;;-1.42;97.08887;92207.61;;;;
2019/12/13 04:59:57;;;;;;;9.85;7;;;;;;;-1.42;97.08887;92207.61;;;;
2019/12/13 05:00:58;;;;;;;9.85;7;;;;;;;-1.42;97.08887;92207.61;;;;
2019/12/13 05:01:59;;;;;;;9.85;7;;;;;;;-1.42;97.08887;92207.61;;;;
2019/12/13 05:03:03;;;;;;;9.85;7;;;;;;;-1.42;97.08887;92207.61;;;;
2019/12/13 05:04:25;;;;;;;9.85;7;;;;;;;-1.42;97.08887;92207.61;;;;
2019/12/13 05:05:36;;;;;;;9.85;7;;;;;;;-1.42;97.08887;92207.61;;;;
2019/12/13 05:07:00;;;;;;;11;6.900001;;;;;;;-1.49;97.33984;92197.71;;;;
2019/12/13 05:08:02;;;;;;;11;6.900001;;;;;;;-1.49;97.33984;92197.71;;;;
2019/12/13 05:09:04;;;;;;;11;6.900001;;;;;;;-1.49;97.33984;92197.71;;;;
2019/12/13 05:10:05;;;;;;;11;6.900001;;;;;;;-1.49;97.33984;92197.71;;;;
2019/12/13 05:11:06;;;;;;;11;6.900001;;;;;;;-1.49;97.33984;92197.71;;;;
2019/12/13 05:12:08;;;;;;;11;6.900001;;;;;;;-1.49;97.33984;92197.71;;;;
2019/12/13 05:13:09;;;;;;;11;6.900001;;;;;;;-1.49;97.33984;92197.71;;;;
2019/12/13 05:14:10;;;;;;;11;6.900001;;;;;;;-1.49;97.33984;92197.71;;;;
2019/12/13 05:15:11;;;;;;;11;6.900001;;;;;;;-1.49;97.33984;92197.71;;;;
2019/12/13 05:16:12;;;;;;;11;6.900001;;;;;;;-1.49;97.33984;92197.71;;;;
2019/12/13 05:17:13;;;;;;;11.55;7.05;;;;;;;-1.4;97.5166;92208.17;;;;
2019/12/13 05:18:14;;;;;;;11.55;7.05;;;;;;;-1.4;97.5166;92208.17;;;;
2019/12/13 05:19:15;;;;;;;11.55;7.05;;;;;;;-1.4;97.5166;92208.17;;;;
2019/12/13 05:20:16;;;;;;;11.55;7.05;;;;;;;-1.4;97.5166;92208.17;;;;
2019/12/13 05:21:17;;;;;;;11.55;7.05;;;;;;;-1.4;97.5166;92208.17;;;;
2019/12/13 05:22:19;;;;;;;11.55;7.05;;;;;;;-1.4;97.5166;92208.17;;;;
2019/12/13 05:23:20;;;;;;;11.55;7.05;;;;;;;-1.4;97.5166;92208.17;;;;
2019/12/13 05:24:21;;;;;;;11.55;7.05;;;;;;;-1.4;97.5166;92208.17;;;;
2019/12/13 05:25:22;;;;;;;11.55;7.05;;;;;;;-1.4;97.5166;92208.17;;;;
2019/12/13 05:26:23;;;;;;;11.55;7.05;;;;;;;-1.4;97.5166;92208.17;;;;
2019/12/13 05:27:24;;;;;;;11.55;7.05;;;;;;;-1.4;97.5166;92208.17;;;;
2019/12/13 05:28:25;;;;;;;8.549999;6.650001;;;;;;;-1.33;97.55176;92206.72;;;;
2019/12/13 05:29:26;;;;;;;8.549999;6.650001;;;;;;;-1.33;97.55176;92206.72;;;;
2019/12/13 05:30:27;;;;;;;8.549999;6.650001;;;;;;;-1.33;97.55176;92206.72;;;;
2019/12/13 05:31:28;;;;;;;8.549999;6.650001;;;;;;;-1.33;97.55176;92206.72;;;;
2019/12/13 05:32:29;;;;;;;8.549999;6.650001;;;;;;;-1.33;97.55176;92206.72;;;;
2019/12/13 05:33:31;;;;;;;8.549999;6.650001;;;;;;;-1.33;97.55176;92206.72;;;;
2019/12/13 05:34:32;;;;;;;8.549999;6.650001;;;;;;;-1.33;97.55176;92206.72;;;;
2019/12/13 05:35:33;;;;;;;8.549999;6.650001;;;;;;;-1.33;97.55176;92206.72;;;;
2019/12/13 05:36:34;;;;;;;8.549999;6.650001;;;;;;;-1.33;97.55176;92206.72;;;;
2019/12/13 05:37:35;;;;;;;8.549999;6.650001;;;;;;;-1.33;97.55176;92206.72;;;;
2019/12/13 05:38:36;;;;;;;8.550001;5.900001;;;;;;;-1.18;97.55566;92181.28;;;;
2019/12/13 05:39:37;;;;;;;8.550001;5.900001;;;;;;;-1.18;97.55566;92181.28;;;;
2019/12/13 05:40:38;;;;;;;8.550001;5.900001;;;;;;;-1.18;97.55566;92181.28;;;;
2019/12/13 05:41:39;;;;;;;8.550001;5.900001;;;;;;;-1.18;97.55566;92181.28;;;;
2019/12/13 05:42:41;;;;;;;8.550001;5.900001;;;;;;;-1.18;97.55566;92181.28;;;;
2019/12/13 05:43:42;;;;;;;8.550001;5.900001;;;;;;;-1.18;97.55566;92181.28;;;;
2019/12/13 05:44:43;;;;;;;8.550001;5.900001;;;;;;;-1.18;97.55566;92181.28;;;;
2019/12/13 05:45:44;;;;;;;8.550001;5.900001;;;;;;;-1.18;97.55566;92181.28;;;;
2019/12/13 05:46:45;;;;;;;8.550001;5.900001;;;;;;;-1.18;97.55566;92181.28;;;;
2019/12/13 05:47:46;;;;;;;8.550001;5.900001;;;;;;;-1.18;97.55566;92181.28;;;;
2019/12/13 05:48:47;;;;;;;8.550001;5.900001;;;;;;;-1.18;97.55566;92181.28;;;;
2019/12/13 05:49:48;;;;;;;8.200002;5.2;;;;;;;-1.16;97.57813;92150.2;;;;
2019/12/13 05:50:49;;;;;;;8.200002;5.2;;;;;;;-1.16;97.57813;92150.2;;;;
2019/12/13 05:51:50;;;;;;;8.200002;5.2;;;;;;;-1.16;97.57813;92150.2;;;;
2019/12/13 05:52:51;;;;;;;8.200002;5.2;;;;;;;-1.16;97.57813;92150.2;;;;
2019/12/13 05:53:52;;;;;;;8.200002;5.2;;;;;;;-1.16;97.57813;92150.2;;;;
2019/12/13 05:54:53;;;;;;;8.200002;5.2;;;;;;;-1.16;97.57813;92150.2;;;;
2019/12/13 05:55:55;;;;;;;8.200002;5.2;;;;;;;-1.16;97.57813;92150.2;;;;
2019/12/13 05:56:56;;;;;;;8.200002;5.2;;;;;;;-1.16;97.57813;92150.2;;;;